Back to Top

Language: 

My Weather Underground Personal Weather Station Historical Data with Graphs...

Delerius Weather Station Historical Data
Daily Summary for October 15, 2017 Units:  English    Metric   Both
« Previous Day
Next Day »
Daily Weekly Monthly Yearly Custom
  High: Low: Average:
Temperature: 68.0 °F 55.6 °F 60.1 °F
Dew Point: 57.7 °F 53.2 °F 54.9 °F
Humidity: 93 % 68 % 83 %
Wind Speed: 13.0 mph 0.0 mph 5.2 mph
Wind Gust: 22.0 mph - -
Wind:- - SSW
Pressure: 30.07 in 29.91 in -
Precipitation: 0.00 in    
Historical Graphs
 
 
Tabular Data for October 15, 2017
Time Temperature Dew Point Pressure Wind Wind Speed Wind Gust Humidity Rainfall Rate (Hourly) solar Conditions
00:01 58.6 °F 54.1 °F 30.07 in SSW 6.0 mph 12.0 mph 85 % 0.00 in 0 W/m2
00:06 58.6 °F 54.1 °F 30.07 in SSW 6.0 mph 12.0 mph 85 % 0.00 in 0 W/m2
00:11 58.5 °F 54.0 °F 30.07 in SSW 7.0 mph 12.0 mph 85 % 0.00 in 0 W/m2
00:16 58.5 °F 54.3 °F 30.07 in SSW 7.0 mph 15.0 mph 86 % 0.00 in 0 W/m2
00:21 58.5 °F 54.3 °F 30.07 in SW 8.0 mph 15.0 mph 86 % 0.00 in 0 W/m2
00:26 58.6 °F 54.5 °F 30.07 in SSW 9.0 mph 14.0 mph 86 % 0.00 in 0 W/m2
00:31 58.6 °F 54.5 °F 30.07 in SSW 9.0 mph 13.0 mph 86 % 0.00 in 0 W/m2
00:36 58.6 °F 54.5 °F 30.07 in SSW 8.0 mph 13.0 mph 86 % 0.00 in 0 W/m2
00:41 58.5 °F 54.3 °F 30.06 in SSW 7.0 mph 13.0 mph 86 % 0.00 in 0 W/m2
00:46 58.3 °F 54.1 °F 30.07 in South 6.0 mph 11.0 mph 86 % 0.00 in 0 W/m2
00:51 58.3 °F 54.1 °F 30.07 in South 5.0 mph 10.0 mph 86 % 0.00 in 0 W/m2
00:56 57.9 °F 53.8 °F 30.07 in SSW 4.0 mph 8.0 mph 86 % 0.00 in 0 W/m2
01:01 57.7 °F 53.9 °F 30.07 in SSW 5.0 mph 14.0 mph 87 % 0.00 in 0 W/m2
01:06 57.9 °F 54.1 °F 30.06 in SSW 8.0 mph 16.0 mph 87 % 0.00 in 0 W/m2
01:11 58.1 °F 54.2 °F 30.06 in SSW 9.0 mph 16.0 mph 87 % 0.00 in 0 W/m2
01:16 58.3 °F 54.4 °F 30.06 in SSW 9.0 mph 15.0 mph 87 % 0.00 in 0 W/m2
01:21 58.3 °F 54.4 °F 30.06 in SSW 10.0 mph 16.0 mph 87 % 0.00 in 0 W/m2
01:26 58.3 °F 54.4 °F 30.06 in SSW 10.0 mph 16.0 mph 87 % 0.00 in 0 W/m2
01:27 58.3 °F 54.4 °F 30.06 in SSW 10.0 mph 16.0 mph 87 % 0.00 in 0 W/m2
01:32 58.3 °F 54.4 °F 30.06 in SSW 9.0 mph 16.0 mph 87 % 0.00 in 0 W/m2
01:37 58.3 °F 54.4 °F 30.06 in SSW 8.0 mph 14.0 mph 87 % 0.00 in 0 W/m2
01:42 58.3 °F 54.4 °F 30.06 in SSW 8.0 mph 14.0 mph 87 % 0.00 in 0 W/m2
01:47 58.3 °F 54.4 °F 30.05 in SSW 9.0 mph 16.0 mph 87 % 0.00 in 0 W/m2
01:52 58.3 °F 54.4 °F 30.05 in SSW 9.0 mph 16.0 mph 87 % 0.00 in 0 W/m2
01:57 58.3 °F 54.4 °F 30.05 in SSW 8.0 mph 16.0 mph 87 % 0.00 in 0 W/m2
02:02 58.3 °F 54.4 °F 30.05 in SSW 8.0 mph 14.0 mph 87 % 0.00 in 0 W/m2
02:07 58.1 °F 54.2 °F 30.05 in SSW 8.0 mph 14.0 mph 87 % 0.00 in 0 W/m2
02:12 58.1 °F 54.6 °F 30.05 in SW 7.0 mph 13.0 mph 88 % 0.00 in 0 W/m2
02:17 58.3 °F 54.7 °F 30.05 in SSW 8.0 mph 15.0 mph 88 % 0.00 in 0 W/m2
02:22 58.3 °F 54.4 °F 30.05 in SW 8.0 mph 15.0 mph 87 % 0.00 in 0 W/m2
02:27 58.1 °F 54.2 °F 30.05 in SW 6.0 mph 13.0 mph 87 % 0.00 in 0 W/m2
02:32 57.9 °F 54.1 °F 30.05 in SSW 4.0 mph 12.0 mph 87 % 0.00 in 0 W/m2
02:37 57.9 °F 54.1 °F 30.04 in South 4.0 mph 11.0 mph 87 % 0.00 in 0 W/m2
02:42 57.9 °F 54.1 °F 30.04 in SSE 4.0 mph 11.0 mph 87 % 0.00 in 0 W/m2
02:47 57.7 °F 53.9 °F 30.04 in South 3.0 mph 7.0 mph 87 % 0.00 in 0 W/m2
02:52 57.7 °F 53.9 °F 30.03 in South 4.0 mph 9.0 mph 87 % 0.00 in 0 W/m2
02:57 57.7 °F 53.9 °F 30.03 in SSE 5.0 mph 9.0 mph 87 % 0.00 in 0 W/m2
02:58 57.6 °F 53.7 °F 30.03 in SSE 5.0 mph 9.0 mph 87 % 0.00 in 0 W/m2
03:03 57.6 °F 54.0 °F 30.03 in SSE 5.0 mph 9.0 mph 88 % 0.00 in 0 W/m2
03:08 57.6 °F 54.0 °F 30.03 in South 5.0 mph 8.0 mph 88 % 0.00 in 0 W/m2
03:13 57.6 °F 54.0 °F 30.02 in South 5.0 mph 8.0 mph 88 % 0.00 in 0 W/m2
03:18 57.4 °F 53.9 °F 30.02 in South 4.0 mph 9.0 mph 88 % 0.00 in 0 W/m2
03:23 57.4 °F 53.9 °F 30.02 in SSE 5.0 mph 9.0 mph 88 % 0.00 in 0 W/m2
03:28 57.2 °F 53.7 °F 30.02 in SSE 6.0 mph 12.0 mph 88 % 0.00 in 0 W/m2
03:33 57.4 °F 53.9 °F 30.02 in South 7.0 mph 13.0 mph 88 % 0.00 in 0 W/m2
03:38 57.4 °F 53.9 °F 30.02 in South 7.0 mph 13.0 mph 88 % 0.00 in 0 W/m2
03:43 57.4 °F 53.9 °F 30.02 in South 6.0 mph 14.0 mph 88 % 0.00 in 0 W/m2
03:48 57.4 °F 53.9 °F 30.02 in South 7.0 mph 14.0 mph 88 % 0.00 in 0 W/m2
03:53 57.4 °F 53.9 °F 30.01 in South 7.0 mph 12.0 mph 88 % 0.00 in 0 W/m2
03:58 57.4 °F 53.9 °F 30.01 in South 7.0 mph 11.0 mph 88 % 0.00 in 0 W/m2
04:03 57.2 °F 54.0 °F 30.01 in South 6.0 mph 11.0 mph 89 % 0.00 in 0 W/m2
04:08 57.0 °F 53.8 °F 30.01 in South 5.0 mph 9.0 mph 89 % 0.00 in 0 W/m2
04:13 56.8 °F 53.6 °F 30.01 in South 3.0 mph 9.0 mph 89 % 0.00 in 0 W/m2
04:18 56.7 °F 53.5 °F 30.00 in SW 1.0 mph 5.0 mph 89 % 0.00 in 0 W/m2
04:23 56.5 °F 53.3 °F 30.01 in NNW 2.0 mph 7.0 mph 89 % 0.00 in 0 W/m2
04:28 56.1 °F 53.2 °F 30.00 in NW 2.0 mph 7.0 mph 90 % 0.00 in 0 W/m2
04:33 56.1 °F 53.2 °F 30.00 in West 1.0 mph 6.0 mph 90 % 0.00 in 0 W/m2
04:38 56.1 °F 53.2 °F 30.00 in WSW 2.0 mph 6.0 mph 90 % 0.00 in 0 W/m2
04:43 55.9 °F 53.4 °F 30.00 in WSW 2.0 mph 6.0 mph 91 % 0.00 in 0 W/m2
04:48 55.9 °F 53.4 °F 30.00 in SW 1.0 mph 7.0 mph 91 % 0.00 in 0 W/m2
04:53 56.1 °F 53.5 °F 30.00 in SW 3.0 mph 8.0 mph 91 % 0.00 in 0 W/m2
04:59 56.3 °F 53.7 °F 29.99 in SSW 4.0 mph 8.0 mph 91 % 0.00 in 0 W/m2
05:04 56.3 °F 53.7 °F 29.99 in SW 3.0 mph 9.0 mph 91 % 0.00 in 0 W/m2
05:09 56.3 °F 53.7 °F 29.99 in SW 3.0 mph 9.0 mph 91 % 0.00 in 0 W/m2
05:14 56.5 °F 53.9 °F 29.99 in SSW 3.0 mph 8.0 mph 91 % 0.00 in 0 W/m2
05:19 56.7 °F 54.1 °F 29.99 in SSW 5.0 mph 9.0 mph 91 % 0.00 in 0 W/m2
05:24 56.7 °F 54.1 °F 29.98 in SSW 5.0 mph 11.0 mph 91 % 0.00 in 0 W/m2
05:29 56.8 °F 54.2 °F 29.98 in SSW 5.0 mph 11.0 mph 91 % 0.00 in 0 W/m2
05:34 56.8 °F 54.2 °F 29.99 in SSW 6.0 mph 13.0 mph 91 % 0.00 in 0 W/m2
05:39 56.8 °F 54.2 °F 29.98 in SSW 5.0 mph 13.0 mph 91 % 0.00 in 0 W/m2
05:44 56.8 °F 53.9 °F 29.98 in SW 3.0 mph 8.0 mph 90 % 0.00 in 0 W/m2
05:49 56.7 °F 53.8 °F 29.98 in West 3.0 mph 8.0 mph 90 % 0.00 in 0 W/m2
05:54 56.5 °F 53.6 °F 29.98 in West 3.0 mph 7.0 mph 90 % 0.00 in 0 W/m2
05:59 56.3 °F 53.4 °F 29.98 in WSW 4.0 mph 7.0 mph 90 % 0.00 in 0 W/m2
06:04 56.3 °F 53.7 °F 29.98 in SW 2.0 mph 7.0 mph 91 % 0.00 in 0 W/m2
06:09 56.1 °F 53.5 °F 29.98 in SW 1.0 mph 6.0 mph 91 % 0.00 in 0 W/m2
06:14 56.1 °F 53.5 °F 29.98 in SW 3.0 mph 9.0 mph 91 % 0.00 in 0 W/m2
06:19 56.1 °F 53.5 °F 29.98 in SW 2.0 mph 9.0 mph 91 % 0.00 in 0 W/m2
06:24 55.9 °F 53.4 °F 29.98 in WSW 2.0 mph 7.0 mph 91 % 0.00 in 0 W/m2
06:29 55.9 °F 53.4 °F 29.98 in WSW 3.0 mph 7.0 mph 91 % 0.00 in 0 W/m2
06:34 55.9 °F 53.6 °F 29.98 in SW 4.0 mph 8.0 mph 92 % 0.00 in 0 W/m2
06:39 55.9 °F 53.4 °F 29.97 in SSW 3.0 mph 8.0 mph 91 % 0.00 in 0 W/m2
06:44 55.9 °F 53.4 °F 29.97 in SSW 3.0 mph 7.0 mph 91 % 0.00 in 0 W/m2
06:49 55.9 °F 53.4 °F 29.97 in SSW 3.0 mph 7.0 mph 91 % 0.00 in 0 W/m2
06:54 55.8 °F 53.2 °F 29.97 in SSW 2.0 mph 7.0 mph 91 % 0.00 in 0 W/m2
06:59 55.6 °F 53.3 °F 29.97 in SSW 1.0 mph 5.0 mph 92 % 0.00 in 0 W/m2
07:04 55.6 °F 53.3 °F 29.97 in SW 1.0 mph 5.0 mph 92 % 0.00 in 0 W/m2
07:09 55.8 °F 53.5 °F 29.97 in SW 2.0 mph 5.0 mph 92 % 0.00 in 0 W/m2
07:14 55.6 °F 53.3 °F 29.97 in South 3.0 mph 8.0 mph 92 % 0.00 in 0 W/m2
07:19 55.6 °F 53.3 °F 29.97 in South 4.0 mph 8.0 mph 92 % 0.00 in 0 W/m2
07:24 55.6 °F 53.3 °F 29.97 in SSE 4.0 mph 7.0 mph 92 % 0.00 in 0 W/m2
07:29 55.6 °F 53.3 °F 29.97 in SSE 3.0 mph 7.0 mph 92 % 0.00 in 0 W/m2
07:34 55.6 °F 53.6 °F 29.97 in South 2.0 mph 6.0 mph 93 % 0.00 in 0 W/m2
07:39 55.8 °F 53.8 °F 29.97 in South 3.0 mph 7.0 mph 93 % 0.00 in 5 W/m2
07:44 55.9 °F 53.9 °F 29.97 in South 4.0 mph 8.0 mph 93 % 0.00 in 9 W/m2
07:49 56.1 °F 54.1 °F 29.97 in South 3.0 mph 8.0 mph 93 % 0.00 in 11 W/m2
07:54 56.1 °F 54.1 °F 29.97 in SSW 1.0 mph 6.0 mph 93 % 0.00 in 11 W/m2
07:59 56.1 °F 54.1 °F 29.97 in SSW 2.0 mph 6.0 mph 93 % 0.00 in 9 W/m2
08:04 56.5 °F 54.5 °F 29.97 in SSW 2.0 mph 6.0 mph 93 % 0.00 in 11 W/m2
08:09 56.5 °F 54.5 °F 29.97 in SW 2.0 mph 6.0 mph 93 % 0.00 in 16 W/m2
08:14 56.5 °F 54.5 °F 29.97 in WSW 2.0 mph 6.0 mph 93 % 0.00 in 18 W/m2
08:20 56.7 °F 54.7 °F 29.97 in West 1.0 mph 5.0 mph 93 % 0.00 in 16 W/m2
08:25 56.8 °F 54.8 °F 29.97 in SW 1.0 mph 6.0 mph 93 % 0.00 in 18 W/m2
08:30 57.0 °F 55.0 °F 29.97 in South 4.0 mph 9.0 mph 93 % 0.00 in 16 W/m2
08:35 57.2 °F 54.9 °F 29.97 in South 5.0 mph 11.0 mph 92 % 0.00 in 23 W/m2
08:40 57.4 °F 55.1 °F 29.97 in SSW 6.0 mph 11.0 mph 92 % 0.00 in 23 W/m2
08:45 57.6 °F 55.3 °F 29.97 in SSW 7.0 mph 15.0 mph 92 % 0.00 in 25 W/m2
08:50 57.7 °F 55.4 °F 29.97 in SSW 6.0 mph 15.0 mph 92 % 0.00 in 26 W/m2
08:55 57.7 °F 55.4 °F 29.97 in SSW 6.0 mph 10.0 mph 92 % 0.00 in 23 W/m2
09:00 57.7 °F 55.4 °F 29.97 in SSW 6.0 mph 11.0 mph 92 % 0.00 in 23 W/m2
09:05 57.7 °F 55.4 °F 29.97 in SSW 6.0 mph 11.0 mph 92 % 0.00 in 21 W/m2
09:10 57.7 °F 55.4 °F 29.97 in SSW 5.0 mph 9.0 mph 92 % 0.00 in 25 W/m2
09:15 57.7 °F 55.4 °F 29.97 in SSW 5.0 mph 9.0 mph 92 % 0.00 in 26 W/m2
09:20 57.7 °F 55.4 °F 29.97 in SSW 5.0 mph 9.0 mph 92 % 0.00 in 30 W/m2
09:25 57.7 °F 55.4 °F 29.97 in SSW 6.0 mph 11.0 mph 92 % 0.00 in 30 W/m2
09:30 57.9 °F 55.6 °F 29.97 in SSW 7.0 mph 11.0 mph 92 % 0.00 in 33 W/m2
09:40 57.9 °F 55.6 °F 29.96 in SSW 5.0 mph 9.0 mph 92 % 0.00 in 98 W/m2
09:45 58.1 °F 55.8 °F 29.96 in SSW 5.0 mph 10.0 mph 92 % 0.00 in 76 W/m2
09:50 58.3 °F 56.0 °F 29.96 in SSW 5.0 mph 10.0 mph 92 % 0.00 in 76 W/m2
09:55 58.5 °F 56.1 °F 29.96 in SSW 5.0 mph 10.0 mph 92 % 0.00 in 69 W/m2
10:00 58.5 °F 55.8 °F 29.96 in SSW 5.0 mph 9.0 mph 91 % 0.00 in 86 W/m2
10:05 58.6 °F 56.0 °F 29.95 in SSW 6.0 mph 9.0 mph 91 % 0.00 in 107 W/m2
10:10 58.8 °F 56.2 °F 29.95 in SSW 5.0 mph 9.0 mph 91 % 0.00 in 98 W/m2
10:15 59.0 °F 56.4 °F 29.95 in South 5.0 mph 9.0 mph 91 % 0.00 in 142 W/m2
10:20 59.2 °F 56.2 °F 29.95 in South 4.0 mph 9.0 mph 90 % 0.00 in 167 W/m2
10:25 59.5 °F 56.6 °F 29.95 in South 3.0 mph 9.0 mph 90 % 0.00 in 248 W/m2
10:30 59.7 °F 56.8 °F 29.95 in SSW 1.0 mph 5.0 mph 90 % 0.00 in 195 W/m2
10:36 60.3 °F 57.0 °F 29.95 in Calm   5.0 mph 89 % 0.00 in 214 W/m2
10:41 60.4 °F 56.9 °F 29.95 in SSW 2.0 mph 10.0 mph 88 % 0.00 in 104 W/m2
10:46 60.4 °F 56.6 °F 29.95 in SSW 6.0 mph 10.0 mph 87 % 0.00 in 72 W/m2
10:51 60.4 °F 56.6 °F 29.95 in SSW 8.0 mph 11.0 mph 87 % 0.00 in 97 W/m2
10:56 60.4 °F 56.6 °F 29.95 in SSW 7.0 mph 11.0 mph 87 % 0.00 in 111 W/m2
11:01 60.4 °F 56.2 °F 29.95 in SW 7.0 mph 12.0 mph 86 % 0.00 in 111 W/m2
11:06 60.6 °F 56.4 °F 29.95 in SW 8.0 mph 12.0 mph 86 % 0.00 in 123 W/m2
11:11 61.0 °F 56.4 °F 29.94 in SW 10.0 mph 21.0 mph 85 % 0.00 in 142 W/m2
11:16 61.2 °F 56.3 °F 29.94 in SW 12.0 mph 21.0 mph 84 % 0.00 in 134 W/m2
11:21 61.3 °F 56.1 °F 29.94 in SW 13.0 mph 22.0 mph 83 % 0.00 in 174 W/m2
11:26 61.5 °F 56.0 °F 29.94 in SW 13.0 mph 22.0 mph 82 % 0.00 in 100 W/m2
11:31 61.5 °F 56.0 °F 29.94 in SW 13.0 mph 21.0 mph 82 % 0.00 in 91 W/m2
11:36 61.5 °F 56.0 °F 29.95 in SW 12.0 mph 21.0 mph 82 % 0.00 in 88 W/m2
11:41 61.5 °F 56.0 °F 29.94 in SSW 12.0 mph 21.0 mph 82 % 0.00 in 102 W/m2
11:46 61.7 °F 56.1 °F 29.94 in SW 13.0 mph 19.0 mph 82 % 0.00 in 77 W/m2
11:51 61.7 °F 55.8 °F 29.95 in SW 12.0 mph 19.0 mph 81 % 0.00 in 79 W/m2
11:56 61.9 °F 56.0 °F 29.95 in SW 11.0 mph 19.0 mph 81 % 0.00 in 100 W/m2
12:01 61.9 °F 56.0 °F 29.95 in SW 11.0 mph 21.0 mph 81 % 0.00 in 111 W/m2
12:06 62.1 °F 55.8 °F 29.95 in SW 11.0 mph 21.0 mph 80 % 0.00 in 90 W/m2
12:11 62.2 °F 55.6 °F 29.95 in WSW 11.0 mph 18.0 mph 79 % 0.00 in 121 W/m2
12:16 62.4 °F 55.8 °F 29.95 in SW 10.0 mph 16.0 mph 79 % 0.00 in 114 W/m2
12:21 62.6 °F 55.6 °F 29.94 in SW 9.0 mph 16.0 mph 78 % 0.00 in 141 W/m2
12:26 62.8 °F 55.5 °F 29.95 in WSW 11.0 mph 22.0 mph 77 % 0.00 in 181 W/m2
12:31 63.0 °F 55.6 °F 29.94 in WSW 11.0 mph 22.0 mph 77 % 0.00 in 195 W/m2
12:36 63.1 °F 55.8 °F 29.94 in WSW 8.0 mph 14.0 mph 77 % 0.00 in 225 W/m2
12:41 63.5 °F 56.2 °F 29.94 in SW 9.0 mph 16.0 mph 77 % 0.00 in 225 W/m2
12:46 63.9 °F 56.1 °F 29.94 in SW 10.0 mph 16.0 mph 76 % 0.00 in 288 W/m2
12:51 64.4 °F 56.3 °F 29.94 in SW 9.0 mph 15.0 mph 75 % 0.00 in 554 W/m2
12:53 64.6 °F 56.5 °F 29.94 in SW 8.0 mph 15.0 mph 75 % 0.00 in 566 W/m2
12:58 65.3 °F 56.8 °F 29.94 in WSW 8.0 mph 18.0 mph 74 % 0.00 in 555 W/m2
13:03 65.8 °F 56.9 °F 29.93 in WSW 9.0 mph 18.0 mph 73 % 0.00 in 508 W/m2
13:08 66.0 °F 56.3 °F 29.93 in SW 9.0 mph 20.0 mph 71 % 0.00 in 519 W/m2
13:13 66.0 °F 56.7 °F 29.93 in SW 10.0 mph 21.0 mph 72 % 0.00 in 496 W/m2
13:18 66.2 °F 56.9 °F 29.93 in SW 9.0 mph 21.0 mph 72 % 0.00 in 482 W/m2
13:23 66.6 °F 56.9 °F 29.93 in WSW 9.0 mph 16.0 mph 71 % 0.00 in 469 W/m2
13:28 66.7 °F 56.6 °F 29.93 in WSW 10.0 mph 16.0 mph 70 % 0.00 in 471 W/m2
13:33 66.7 °F 56.6 °F 29.93 in WSW 10.0 mph 15.0 mph 70 % 0.00 in 478 W/m2
13:38 66.9 °F 56.8 °F 29.93 in WSW 10.0 mph 15.0 mph 70 % 0.00 in 490 W/m2
13:43 66.9 °F 56.8 °F 29.93 in WSW 9.0 mph 14.0 mph 70 % 0.00 in 513 W/m2
13:48 67.3 °F 57.6 °F 29.93 in SW 8.0 mph 13.0 mph 71 % 0.00 in 469 W/m2
13:53 66.9 °F 57.2 °F 29.92 in SW 7.0 mph 14.0 mph 71 % 0.00 in 438 W/m2
13:58 67.3 °F 57.2 °F 29.92 in SW 8.0 mph 18.0 mph 70 % 0.00 in 434 W/m2
14:03 67.3 °F 57.2 °F 29.93 in SW 8.0 mph 18.0 mph 70 % 0.00 in 448 W/m2
14:08 67.5 °F 57.7 °F 29.93 in SW 5.0 mph 9.0 mph 71 % 0.00 in 454 W/m2
14:13 67.6 °F 57.5 °F 29.93 in WSW 5.0 mph 14.0 mph 70 % 0.00 in 401 W/m2
14:18 67.6 °F 57.1 °F 29.93 in WSW 9.0 mph 19.0 mph 69 % 0.00 in 415 W/m2
14:23 67.5 °F 57.3 °F 29.93 in WSW 10.0 mph 19.0 mph 70 % 0.00 in 396 W/m2
14:28 67.8 °F 57.7 °F 29.93 in WSW 8.0 mph 18.0 mph 70 % 0.00 in 420 W/m2
14:33 68.0 °F 57.4 °F 29.93 in West 8.0 mph 16.0 mph 69 % 0.00 in 422 W/m2
14:38 67.6 °F 57.1 °F 29.92 in SW 10.0 mph 16.0 mph 69 % 0.00 in 401 W/m2
14:43 67.6 °F 57.5 °F 29.92 in SW 9.0 mph 16.0 mph 70 % 0.00 in 387 W/m2
14:48 67.6 °F 57.1 °F 29.92 in SW 7.0 mph 15.0 mph 69 % 0.00 in 367 W/m2
14:53 67.8 °F 57.3 °F 29.92 in SW 7.0 mph 11.0 mph 69 % 0.00 in 353 W/m2
14:58 67.8 °F 57.3 °F 29.92 in SW 7.0 mph 15.0 mph 69 % 0.00 in 378 W/m2
15:03 67.6 °F 56.7 °F 29.92 in SW 9.0 mph 15.0 mph 68 % 0.00 in 359 W/m2
15:08 67.5 °F 56.9 °F 29.92 in SW 9.0 mph 15.0 mph 69 % 0.00 in 350 W/m2
15:13 67.3 °F 56.8 °F 29.92 in SW 9.0 mph 19.0 mph 69 % 0.00 in 323 W/m2
15:18 67.1 °F 56.6 °F 29.92 in SW 9.0 mph 19.0 mph 69 % 0.00 in 294 W/m2
15:23 67.3 °F 56.8 °F 29.92 in WSW 9.0 mph 16.0 mph 69 % 0.00 in 316 W/m2
15:28 66.9 °F 56.4 °F 29.92 in SW 9.0 mph 19.0 mph 69 % 0.00 in 302 W/m2
15:33 66.7 °F 56.2 °F 29.92 in SW 9.0 mph 19.0 mph 69 % 0.00 in 283 W/m2
15:38 66.9 °F 56.4 °F 29.92 in SW 9.0 mph 15.0 mph 69 % 0.00 in 299 W/m2
15:43 66.9 °F 56.0 °F 29.92 in WSW 9.0 mph 15.0 mph 68 % 0.00 in 294 W/m2
15:48 66.7 °F 56.2 °F 29.92 in WSW 10.0 mph 19.0 mph 69 % 0.00 in 239 W/m2
15:53 66.4 °F 55.9 °F 29.92 in SW 11.0 mph 19.0 mph 69 % 0.00 in 269 W/m2
15:59 66.4 °F 56.3 °F 29.92 in SW 11.0 mph 16.0 mph 70 % 0.00 in 276 W/m2
16:04 66.2 °F 56.5 °F 29.92 in SW 10.0 mph 16.0 mph 71 % 0.00 in 246 W/m2
16:09 66.4 °F 55.9 °F 29.92 in WSW 9.0 mph 15.0 mph 69 % 0.00 in 237 W/m2
16:14 66.2 °F 55.7 °F 29.92 in WSW 10.0 mph 16.0 mph 69 % 0.00 in 214 W/m2
16:19 65.8 °F 56.2 °F 29.92 in WSW 9.0 mph 16.0 mph 71 % 0.00 in 190 W/m2
16:24 65.7 °F 56.0 °F 29.91 in WSW 8.0 mph 12.0 mph 71 % 0.00 in 167 W/m2
16:29 65.5 °F 55.8 °F 29.92 in SW 7.0 mph 11.0 mph 71 % 0.00 in 155 W/m2
16:34 65.1 °F 55.9 °F 29.92 in SW 7.0 mph 12.0 mph 72 % 0.00 in 91 W/m2
16:39 64.9 °F 55.7 °F 29.92 in SW 8.0 mph 12.0 mph 72 % 0.00 in 77 W/m2
16:44 64.8 °F 55.5 °F 29.92 in SW 7.0 mph 12.0 mph 72 % 0.00 in 74 W/m2
16:45 64.8 °F 55.5 °F 29.92 in SW 7.0 mph 12.0 mph 72 % 0.00 in 72 W/m2
16:50 64.6 °F 55.3 °F 29.92 in SW 8.0 mph 12.0 mph 72 % 0.00 in 70 W/m2
16:55 64.4 °F 55.6 °F 29.92 in SW 8.0 mph 14.0 mph 73 % 0.00 in 67 W/m2
17:00 64.2 °F 55.4 °F 29.92 in SW 7.0 mph 14.0 mph 73 % 0.00 in 65 W/m2
17:05 64.2 °F 55.4 °F 29.92 in WSW 6.0 mph 11.0 mph 73 % 0.00 in 60 W/m2
17:10 64.0 °F 55.2 °F 29.92 in WSW 6.0 mph 11.0 mph 73 % 0.00 in 51 W/m2
17:15 64.0 °F 55.2 °F 29.92 in WSW 6.0 mph 10.0 mph 73 % 0.00 in 46 W/m2
17:20 63.9 °F 55.0 °F 29.92 in WSW 6.0 mph 9.0 mph 73 % 0.00 in 40 W/m2
17:25 63.7 °F 55.2 °F 29.93 in WSW 6.0 mph 9.0 mph 74 % 0.00 in 37 W/m2
17:30 63.3 °F 54.9 °F 29.93 in SW 6.0 mph 9.0 mph 74 % 0.00 in 33 W/m2
17:35 63.1 °F 54.7 °F 29.93 in SW 5.0 mph 8.0 mph 74 % 0.00 in 28 W/m2
17:36 63.1 °F 54.7 °F 29.93 in SW 5.0 mph 8.0 mph 74 % 0.00 in 28 W/m2
17:41 63.0 °F 54.9 °F 29.93 in WSW 4.0 mph 8.0 mph 75 % 0.00 in 25 W/m2
17:46 62.8 °F 54.7 °F 29.93 in SW 4.0 mph 7.0 mph 75 % 0.00 in 19 W/m2
17:51 62.4 °F 54.8 °F 29.93 in SW 5.0 mph 8.0 mph 76 % 0.00 in 14 W/m2
17:56 62.2 °F 54.6 °F 29.93 in SW 3.0 mph 8.0 mph 76 % 0.00 in 12 W/m2
18:01 62.1 °F 54.8 °F 29.93 in SW 2.0 mph 5.0 mph 77 % 0.00 in 9 W/m2
18:07 61.9 °F 54.6 °F 29.93 in SW 1.0 mph 5.0 mph 77 % 0.00 in 5 W/m2
18:12 61.5 °F 54.6 °F 29.94 in SW 1.0 mph 4.0 mph 78 % 0.00 in 5 W/m2
18:17 61.3 °F 54.4 °F 29.94 in SW 1.0 mph 4.0 mph 78 % 0.00 in 0 W/m2
18:22 61.0 °F 54.4 °F 29.94 in Calm   2.0 mph 79 % 0.00 in 0 W/m2
18:27 60.6 °F 54.1 °F 29.95 in Calm   1.0 mph 79 % 0.00 in 0 W/m2
18:32 60.4 °F 54.2 °F 29.95 in Calm   1.0 mph 80 % 0.00 in 0 W/m2
18:37 60.3 °F 54.1 °F 29.95 in Calm     80 % 0.00 in 0 W/m2
18:42 60.1 °F 54.2 °F 29.95 in Calm     81 % 0.00 in 0 W/m2
18:47 59.9 °F 54.1 °F 29.95 in Calm     81 % 0.00 in 0 W/m2
18:53 59.7 °F 54.2 °F 29.95 in Calm     82 % 0.00 in 0 W/m2
18:58 59.5 °F 54.0 °F 29.95 in Calm     82 % 0.00 in 0 W/m2
19:03 59.4 °F 54.2 °F 29.96 in Calm     83 % 0.00 in 0 W/m2
19:08 59.2 °F 54.3 °F 29.96 in Calm     84 % 0.00 in 0 W/m2
19:13 59.2 °F 54.3 °F 29.96 in Calm     84 % 0.00 in 0 W/m2
19:18 59.2 °F 54.3 °F 29.96 in Calm     84 % 0.00 in 0 W/m2
19:23 59.2 °F 54.3 °F 29.96 in Calm     84 % 0.00 in 0 W/m2
19:28 59.2 °F 54.3 °F 29.96 in Calm   2.0 mph 84 % 0.00 in 0 W/m2
19:33 59.0 °F 54.2 °F 29.96 in Calm   4.0 mph 84 % 0.00 in 0 W/m2
19:38 58.8 °F 54.0 °F 29.96 in Calm   4.0 mph 84 % 0.00 in 0 W/m2
19:43 58.8 °F 54.3 °F 29.96 in Calm   2.0 mph 85 % 0.00 in 0 W/m2
19:48 58.8 °F 54.3 °F 29.96 in Calm   2.0 mph 85 % 0.00 in 0 W/m2
19:53 58.8 °F 54.3 °F 29.96 in Calm     85 % 0.00 in 0 W/m2
19:58 58.8 °F 54.3 °F 29.96 in Calm   2.0 mph 85 % 0.00 in 0 W/m2
20:00 58.8 °F 54.3 °F 29.96 in Calm   2.0 mph 85 % 0.00 in 0 W/m2
20:05 58.8 °F 54.3 °F 29.96 in Calm   2.0 mph 85 % 0.00 in 0 W/m2
20:10 58.8 °F 54.3 °F 29.96 in Calm   2.0 mph 85 % 0.00 in 0 W/m2
20:15 58.8 °F 54.3 °F 29.96 in Calm   1.0 mph 85 % 0.00 in 0 W/m2
20:20 59.0 °F 54.5 °F 29.96 in Calm   2.0 mph 85 % 0.00 in 0 W/m2
20:25 59.0 °F 54.5 °F 29.96 in Calm   2.0 mph 85 % 0.00 in 0 W/m2
20:30 59.2 °F 54.7 °F 29.96 in Calm     85 % 0.00 in 0 W/m2
20:35 59.0 °F 54.5 °F 29.96 in Calm   1.0 mph 85 % 0.00 in 0 W/m2
20:40 59.0 °F 54.5 °F 29.96 in SW 1.0 mph 6.0 mph 85 % 0.00 in 0 W/m2
20:41 58.8 °F 54.3 °F 29.96 in SW 2.0 mph 6.0 mph 85 % 0.00 in 0 W/m2
20:46 58.8 °F 54.6 °F 29.96 in SW 4.0 mph 6.0 mph 86 % 0.00 in 0 W/m2
20:51 58.8 °F 54.3 °F 29.96 in SW 4.0 mph 7.0 mph 85 % 0.00 in 0 W/m2
20:56 58.8 °F 54.3 °F 29.96 in SW 5.0 mph 9.0 mph 85 % 0.00 in 0 W/m2
21:01 59.0 °F 54.2 °F 29.96 in SW 5.0 mph 9.0 mph 84 % 0.00 in 0 W/m2
21:06 59.2 °F 54.3 °F 29.96 in SW 4.0 mph 8.0 mph 84 % 0.00 in 0 W/m2
21:11 59.2 °F 54.3 °F 29.97 in SW 4.0 mph 7.0 mph 84 % 0.00 in 0 W/m2
21:16 59.4 °F 54.5 °F 29.97 in SW 3.0 mph 7.0 mph 84 % 0.00 in 0 W/m2
21:17 59.4 °F 54.5 °F 29.97 in SW 3.0 mph 7.0 mph 84 % 0.00 in 0 W/m2
21:22 59.4 °F 54.2 °F 29.97 in SW 2.0 mph 5.0 mph 83 % 0.00 in 0 W/m2
21:27 59.4 °F 54.2 °F 29.97 in SW 2.0 mph 5.0 mph 83 % 0.00 in 0 W/m2
21:32 59.4 °F 54.2 °F 29.97 in SW 1.0 mph 5.0 mph 83 % 0.00 in 0 W/m2
21:37 59.4 °F 54.2 °F 29.97 in South 1.0 mph 5.0 mph 83 % 0.00 in 0 W/m2
21:42 59.4 °F 54.2 °F 29.97 in South 2.0 mph 5.0 mph 83 % 0.00 in 0 W/m2
21:47 59.5 °F 54.4 °F 29.97 in South 2.0 mph 5.0 mph 83 % 0.00 in 0 W/m2
21:52 59.5 °F 54.4 °F 29.97 in South 2.0 mph 6.0 mph 83 % 0.00 in 0 W/m2
21:57 59.5 °F 54.4 °F 29.97 in South 2.0 mph 6.0 mph 83 % 0.00 in 0 W/m2
22:02 59.5 °F 54.4 °F 29.97 in South 2.0 mph 7.0 mph 83 % 0.00 in 0 W/m2
22:07 59.5 °F 54.7 °F 29.97 in South 4.0 mph 9.0 mph 84 % 0.00 in 0 W/m2
22:12 59.5 °F 54.7 °F 29.96 in South 4.0 mph 9.0 mph 84 % 0.00 in 0 W/m2
22:17 59.5 °F 54.7 °F 29.96 in South 5.0 mph 10.0 mph 84 % 0.00 in 0 W/m2
22:22 59.5 °F 54.7 °F 29.97 in South 5.0 mph 10.0 mph 84 % 0.00 in 0 W/m2
22:27 59.5 °F 54.7 °F 29.97 in South 5.0 mph 10.0 mph 84 % 0.00 in 0 W/m2
22:32 59.4 °F 54.5 °F 29.97 in South 6.0 mph 11.0 mph 84 % 0.00 in 0 W/m2
22:37 59.4 °F 54.5 °F 29.97 in South 6.0 mph 11.0 mph 84 % 0.00 in 0 W/m2
22:42 59.4 °F 54.5 °F 29.97 in South 6.0 mph 10.0 mph 84 % 0.00 in 0 W/m2
22:47 59.4 °F 54.5 °F 29.97 in South 6.0 mph 10.0 mph 84 % 0.00 in 0 W/m2
22:52 59.2 °F 54.3 °F 29.97 in South 5.0 mph 9.0 mph 84 % 0.00 in 0 W/m2
22:57 59.2 °F 54.3 °F 29.97 in South 5.0 mph 9.0 mph 84 % 0.00 in 0 W/m2
23:02 59.2 °F 54.3 °F 29.97 in South 5.0 mph 9.0 mph 84 % 0.00 in 0 W/m2
23:07 59.2 °F 54.3 °F 29.97 in South 3.0 mph 9.0 mph 84 % 0.00 in 0 W/m2
23:12 59.2 °F 54.3 °F 29.97 in South 3.0 mph 7.0 mph 84 % 0.00 in 0 W/m2
23:17 59.2 °F 54.3 °F 29.97 in South 3.0 mph 7.0 mph 84 % 0.00 in 0 W/m2
23:23 59.2 °F 54.3 °F 29.97 in South 2.0 mph 7.0 mph 84 % 0.00 in 0 W/m2
23:28 59.0 °F 54.2 °F 29.98 in South 2.0 mph 5.0 mph 84 % 0.00 in 0 W/m2
23:33 59.0 °F 54.2 °F 29.97 in South 2.0 mph 6.0 mph 84 % 0.00 in 0 W/m2
23:38 59.0 °F 54.2 °F 29.97 in South 2.0 mph 6.0 mph 84 % 0.00 in 0 W/m2
23:43 59.0 °F 54.2 °F 29.96 in South 3.0 mph 6.0 mph 84 % 0.00 in 0 W/m2
23:48 59.0 °F 54.2 °F 29.96 in SSE 3.0 mph 6.0 mph 84 % 0.00 in 0 W/m2
23:53 59.0 °F 54.2 °F 29.96 in SSE 3.0 mph 7.0 mph 84 % 0.00 in 0 W/m2
23:58 58.8 °F 54.0 °F 29.96 in SSE 3.0 mph 7.0 mph 84 % 0.00 in 0 W/m2
Delerius-Weather
Compliments of Weather Underground - 2.25 mb

Data updates at regular intervals.